NCAR-RAP Real-Time Weather Data

Output produced by METARs form (17 December 2018  15:32 UTC)
found at http://weather.rap.ucar.edu/surface/
 
RJOW 171000Z 30017G27KT 270V340 9999 -SHRA FEW030 SCT045 10/M01 Q1015
RJOW 170900Z 28015KT 9999 FEW030 SCT045 10/M01 Q1015
RJOW 170800Z 29018KT 9999 FEW025 SCT045 10/M00 Q1014
RJOW 170700Z 28017KT 9999 FEW030 SCT045 BKN070 10/00 Q1014
RJOW 170600Z 28019KT 9999 VCSH FEW020 SCT040 BKN070 10/01 Q1014
RJOW 170500Z 30015KT 9999 -SHRA FEW020 SCT035 BKN045 10/02 Q1013
RJOW 170400Z 28016KT 240V310 9999 -SHRA FEW010 SCT030 BKN040 09/02 Q1014
RJOW 170300Z 29015KT 260V320 9999 -SHRA FEW008 SCT025 BKN035 10/02 Q1014
RJOW 170200Z 30018G28KT 9999 -SHRA FEW005 SCT025 BKN035 10/03 Q1014
RJOW 170100Z 28016G26KT 240V310 9999 -SHRA FEW005 SCT020 BKN030 09/05 Q1015
RJOW 170027Z 30017KT 7000 -SHRA FEW003 SCT020 BKN030 09/06 Q1014 RMK 1ST003 3CU020 5CU030 A2997
RJOW 170000Z 30012KT 270V340 4000 -SHRA BR FEW003 SCT015 BKN025 09/06 Q1015
RJOW 162300Z 30018KT 7000 -SHRA FEW003 SCT010 BKN025 09/07 Q1014
RJOW 161000Z 17003KT 8000 -SHRA FEW010 BKN015 BKN030 09/09 Q1017
RJOW 160919Z 30011KT 5000 SHRA BR FEW005 BKN010 BKN020 10/09 Q1017 RMK 1ST005 5CU010 6CU020 A3004
RJOW 160910Z 31010KT 280V350 5000 -SHRA BR FEW005 SCT010 BKN020 10/09 Q1017 RMK 1ST005 3CU010 5CU020 A3004
RJOW 160900Z 30010KT 280V340 3000 SHRA BR FEW005 SCT010 BKN020 10/09 Q1017
RJOW 160800Z 15006KT 9999 -RA FEW020 SCT040 BKN050 09/08 Q1016
RJOW 160700Z 16008KT 9999 -RA FEW010 BKN050 09/08 Q1016
RJOW 160600Z 14007KT 9999 -RA FEW008 SCT040 BKN060 09/08 Q1017
RJOW 160500Z 16007KT 9999 -RA FEW008 SCT035 BKN050 09/08 Q1018
RJOW 160400Z 16011KT 9999 -RA FEW008 SCT035 BKN050 09/08 Q1019
RJOW 160300Z 17014KT 9999 -RA FEW020 SCT045 BKN060 10/07 Q1020
RJOW 160200Z 16009KT 9999 FEW025 SCT100 BKN120 10/06 Q1021
RJOW 160100Z 16011KT 9999 FEW030 SCT045 BKN120 10/05 Q1022
RJOW 160000Z 17009KT 9999 FEW050 BKN120 BKN/// 09/04 Q1022
RJOW 151000Z 15004KT 120V180 9999 FEW050 SCT/// 06/05 Q1028
RJOW 150900Z 13003KT 090V190 9999 FEW035 SCT/// 05/05 Q1028
RJOW 150800Z 11002KT 9999 FEW035 SCT/// 08/05 Q1028
RJOW 150700Z VRB02KT 9999 FEW035 10/02 Q1028
RJOW 150600Z VRB02KT 9999 FEW035 11/03 Q1028
RJOW 150500Z 02005KT 330V080 9999 FEW035 11/03 Q1028
RJOW 150400Z 01003KT 320V060 9999 FEW030 SCT040 11/03 Q1028